Time;durP1;ratioP1;P1;durP2;ratioP2;P2;SDS_P1;SDS_P2;PMS_P1;PMS_P2;Temp;Humidity;BMP_temperature;BMP_pressure;BME280_temperature;BME280_humidity;BME280_pressure;Samples;Min_cycle;Max_cycle;Signal;HPM_P1;HPM_P2
2020/12/30 00:01:02;;;;;;;16.60;10.45;;;2.60;75.60;;;1.41;60.11;93288.53;5051151;28;20218;-81
2020/12/30 00:03:28;;;;;;;18.63;11.02;;;2.60;75.70;;;1.42;60.39;93278.00;5034646;28;20272;-81
2020/12/30 00:05:55;;;;;;;15.50;10.35;;;2.60;75.90;;;1.44;60.36;93278.66;5053641;28;20313;-81
2020/12/30 00:08:22;;;;;;;19.00;11.27;;;2.60;76.00;;;1.47;60.07;93279.28;5053635;28;20604;-81
2020/12/30 00:10:53;;;;;;;19.80;11.68;;;2.60;76.00;;;1.46;60.37;93268.13;5054908;28;20214;-81
2020/12/30 00:13:19;;;;;;;18.10;11.95;;;2.60;76.10;;;1.47;60.41;93272.31;5034282;28;20736;-81
2020/12/30 00:15:46;;;;;;;19.23;12.32;;;2.60;76.10;;;1.46;60.39;93269.91;5034166;28;20216;-81
2020/12/30 00:18:13;;;;;;;17.83;11.50;;;2.60;76.10;;;1.48;60.20;93283.44;5027603;28;20208;-81
2020/12/30 00:20:40;;;;;;;17.35;11.38;;;2.60;76.20;;;1.46;60.17;93286.22;5053851;28;20573;-81
2020/12/30 00:23:07;;;;;;;19.00;11.90;;;2.50;76.10;;;1.42;59.63;93274.63;5049347;28;20207;-81
2020/12/30 00:25:34;;;;;;;18.77;11.52;;;2.50;76.10;;;1.39;59.89;93280.97;5052844;28;20582;-81
2020/12/30 00:28:01;;;;;;;19.50;12.20;;;2.50;76.10;;;1.39;60.15;93283.53;5046749;28;20208;-81
2020/12/30 00:30:27;;;;;;;19.48;11.70;;;2.50;76.10;;;1.36;60.16;93291.63;5034547;28;20342;-81
2020/12/30 00:32:54;;;;;;;20.35;12.98;;;2.50;76.20;;;1.35;60.21;93287.44;5055082;28;20238;-81
2020/12/30 00:35:21;;;;;;;20.55;12.85;;;2.50;77.00;;;1.31;60.30;93295.72;5039831;28;20224;-81
2020/12/30 00:37:49;;;;;;;23.58;13.30;;;2.50;76.30;;;1.34;60.76;93297.94;5054273;28;20212;-81
2020/12/30 00:40:15;;;;;;;22.20;14.68;;;2.50;76.30;;;1.37;61.09;93311.31;5057860;28;20285;-81
2020/12/30 00:42:42;;;;;;;23.92;14.48;;;2.50;76.40;;;1.40;60.90;93320.50;5049535;28;20658;-81
2020/12/30 00:45:10;;;;;;;23.10;13.55;;;2.50;76.50;;;1.39;61.14;93316.31;5069401;28;20226;-81
2020/12/30 00:47:37;;;;;;;20.92;12.95;;;2.50;76.60;;;1.41;61.93;93319.53;5058384;28;20213;-82
2020/12/30 00:50:07;;;;;;;22.75;15.40;;;2.50;76.60;;;1.41;63.46;93320.31;5034438;28;20246;-81
2020/12/30 00:52:41;;;;;;;23.33;14.90;;;2.50;77.40;;;1.42;63.74;93318.56;5038708;28;20215;-81
2020/12/30 00:55:14;;;;;;;24.60;15.07;;;2.50;77.50;;;1.48;64.30;93327.38;5062728;28;20242;-82
2020/12/30 00:57:49;;;;;;;22.80;14.93;;;2.70;77.90;;;1.51;64.53;93335.56;5047108;28;20187;-81
2020/12/30 01:00:18;;;;;;;24.00;14.45;;;2.60;78.10;;;1.55;64.83;93336.03;5090876;28;20280;-81
2020/12/30 01:03:03;;;;;;;18.65;12.73;;;2.60;78.20;;;1.59;64.89;93339.88;5072973;28;20589;-81
2020/12/30 01:05:30;;;;;;;22.10;13.38;;;2.70;78.40;;;1.62;64.39;93339.50;5056349;28;20211;-81
2020/12/30 01:07:57;;;;;;;19.17;11.52;;;2.70;78.40;;;1.67;63.62;93333.81;5070639;28;20203;-81
2020/12/30 01:10:23;;;;;;;17.98;11.00;;;2.70;78.20;;;1.75;63.05;93337.13;5032316;28;20215;-81
2020/12/30 01:12:50;;;;;;;18.00;10.75;;;2.70;78.10;;;1.74;62.60;93338.09;5053715;28;20299;-81
2020/12/30 01:15:17;;;;;;;15.65;9.98;;;2.70;77.90;;;1.75;62.25;93331.16;5072423;28;20245;-81
2020/12/30 01:17:43;;;;;;;13.20;8.70;;;2.70;77.70;;;1.72;62.31;93339.25;5040878;28;20751;-81
2020/12/30 01:20:10;;;;;;;15.07;9.77;;;2.70;78.40;;;1.74;62.18;93338.09;5038499;28;20208;-81
2020/12/30 01:22:37;;;;;;;17.02;9.25;;;2.80;77.60;;;1.70;61.88;93334.28;5037644;28;20540;-81
2020/12/30 01:25:05;;;;;;;14.60;9.45;;;2.70;77.40;;;1.70;61.58;93336.84;5053744;28;20231;-81
2020/12/30 01:27:31;;;;;;;12.18;8.30;;;2.80;77.40;;;1.69;61.70;93337.03;5037429;28;20278;-81
2020/12/30 01:29:59;;;;;;;14.35;9.05;;;2.70;77.20;;;1.65;61.46;93334.00;5036769;28;20228;-81
2020/12/30 01:32:25;;;;;;;17.27;9.07;;;2.70;77.10;;;1.63;61.33;93328.19;5037893;28;20219;-81
2020/12/30 01:34:52;;;;;;;13.98;8.88;;;2.70;77.10;;;1.57;61.06;93328.91;5052778;28;20293;-81
2020/12/30 01:37:19;;;;;;;13.63;8.65;;;2.70;77.00;;;1.54;61.20;93337.03;5063310;28;20217;-81
2020/12/30 01:39:46;;;;;;;15.90;8.35;;;2.60;76.90;;;1.49;61.40;93326.38;5073683;28;20253;-81
2020/12/30 01:42:12;;;;;;;14.00;8.85;;;2.60;76.80;;;1.44;60.81;93324.31;5045286;28;20200;-81
2020/12/30 01:44:39;;;;;;;13.05;8.30;;;2.60;76.70;;;1.38;61.09;93319.88;5053368;28;20223;-81
2020/12/30 01:47:07;;;;;;;13.57;8.65;;;2.50;76.70;;;1.33;61.15;93320.41;5054806;28;20188;-81
2020/12/30 01:49:33;;;;;;;11.57;8.18;;;2.50;76.70;;;1.27;61.58;93321.91;5056477;28;20783;-81
2020/12/30 01:52:00;;;;;;;12.50;8.20;;;2.50;76.70;;;1.24;61.11;93324.03;5073000;28;20293;-81
2020/12/30 01:54:28;;;;;;;14.35;8.98;;;2.40;77.50;;;1.18;61.55;93322.94;5056310;28;20230;-81
2020/12/30 01:56:55;;;;;;;13.93;9.35;;;2.40;76.80;;;1.17;61.60;93329.06;5060359;28;20567;-81
2020/12/30 01:59:22;;;;;;;13.63;8.68;;;2.30;76.80;;;1.16;61.51;93331.81;5055818;28;20223;-81
2020/12/30 02:02:06;;;;;;;14.68;10.23;;;2.30;76.90;;;1.15;62.23;93330.22;5037719;28;20222;-81
2020/12/30 02:04:53;;;;;;;15.43;10.48;;;2.30;77.30;;;1.16;62.77;93324.91;5051705;28;20230;-80
2020/12/30 02:07:23;;;;;;;15.65;10.07;;;2.30;77.60;;;1.21;62.97;93326.94;5050088;28;20215;-80
2020/12/30 02:09:52;;;;;;;13.30;9.38;;;2.30;77.60;;;1.26;62.70;93328.03;5044188;28;20616;-80
2020/12/30 02:12:19;;;;;;;14.23;8.88;;;2.40;77.70;;;1.30;62.81;93331.06;5059913;28;20224;-81
2020/12/30 02:14:46;;;;;;;15.13;9.10;;;2.30;77.70;;;1.32;62.26;93330.91;5057507;28;20234;-80
2020/12/30 02:17:15;;;;;;;15.13;9.50;;;2.40;77.70;;;1.35;63.54;93333.94;5059148;28;20192;-81
2020/12/30 02:19:42;;;;;;;16.80;9.10;;;2.40;78.00;;;1.37;63.88;93324.25;5064308;28;20215;-81
2020/12/30 02:22:13;;;;;;;15.25;9.82;;;2.40;78.10;;;1.40;63.98;93329.06;5062727;28;20291;-79
2020/12/30 02:24:40;;;;;;;14.35;9.70;;;2.50;78.30;;;1.47;63.84;93328.38;5053805;28;20227;-81
2020/12/30 02:27:06;;;;;;;14.02;9.13;;;2.50;78.30;;;1.52;63.85;93333.81;5049736;28;20207;-81
2020/12/30 02:29:34;;;;;;;14.20;8.93;;;2.50;78.40;;;1.56;63.94;93330.69;5051376;28;20322;-80
2020/12/30 02:32:01;;;;;;;15.18;9.15;;;2.50;78.30;;;1.63;63.44;93333.38;5018114;28;20788;-81
2020/12/30 02:34:28;;;;;;;13.55;8.65;;;2.60;78.40;;;1.67;63.26;93326.06;5053355;28;20206;-82
2020/12/30 02:36:56;;;;;;;12.13;8.10;;;2.60;78.30;;;1.69;63.01;93332.66;5048921;28;20670;-81
2020/12/30 02:39:24;;;;;;;14.85;9.55;;;2.70;78.20;;;1.69;63.80;93324.13;5054451;28;20281;-81
2020/12/30 02:41:51;;;;;;;16.58;9.75;;;2.70;78.30;;;1.71;64.25;93327.31;5056911;28;20215;-82
2020/12/30 02:44:18;;;;;;;13.88;8.57;;;2.80;78.60;;;1.71;64.29;93322.13;5053632;28;20203;-80
2020/12/30 02:46:45;;;;;;;17.63;9.52;;;2.80;78.60;;;1.76;63.72;93309.50;5051645;28;20197;-82
2020/12/30 02:49:12;;;;;;;14.65;8.88;;;2.80;78.40;;;1.78;63.28;93311.91;5054544;28;20224;-81
2020/12/30 02:51:43;;;;;;;13.93;8.50;;;2.80;78.30;;;1.78;62.96;93311.91;5055753;28;20234;-81
2020/12/30 02:54:10;;;;;;;13.98;8.35;;;2.80;78.30;;;1.75;62.85;93308.69;5055134;28;20250;-81
2020/12/30 02:56:38;;;;;;;16.60;10.02;;;2.80;78.10;;;1.71;63.64;93306.63;5072281;28;20184;-81
2020/12/30 02:59:05;;;;;;;15.48;10.05;;;2.80;78.20;;;1.71;64.15;93306.63;5050581;28;20226;-81
2020/12/30 03:01:31;;;;;;;18.67;10.90;;;2.90;78.50;;;1.75;64.46;93305.31;5035364;28;20235;-81
2020/12/30 03:03:58;;;;;;;16.98;11.27;;;2.80;78.60;;;1.78;64.71;93317.09;5051879;28;20277;-81
2020/12/30 03:06:25;;;;;;;15.63;10.05;;;2.80;78.80;;;1.80;64.31;93318.50;5036577;28;20665;-81
2020/12/30 03:08:53;;;;;;;15.52;9.50;;;2.80;78.70;;;1.84;63.64;93318.94;5048221;28;20614;-81
2020/12/30 03:11:21;;;;;;;14.10;9.02;;;2.80;78.60;;;1.82;63.51;93313.97;5036743;28;20202;-81
2020/12/30 03:13:48;;;;;;;12.05;8.30;;;2.80;78.50;;;1.83;63.03;93323.34;5071663;28;20603;-81
2020/12/30 03:16:15;;;;;;;16.63;8.45;;;2.90;78.40;;;1.79;62.90;93316.09;5056366;28;20203;-81
2020/12/30 03:18:43;;;;;;;12.57;7.82;;;2.90;78.10;;;1.72;62.68;93326.34;5051210;28;20227;-81
2020/12/30 03:21:09;;;;;;;10.90;7.05;;;2.80;77.90;;;1.67;62.56;93323.47;5054946;28;20220;-81
2020/12/30 03:23:36;;;;;;;10.45;6.40;;;2.80;77.70;;;1.59;62.45;93329.53;5061637;28;20204;-81
2020/12/30 03:26:03;;;;;;;9.52;6.50;;;2.80;77.70;;;1.53;62.51;93335.41;5058394;28;20215;-81
2020/12/30 03:28:29;;;;;;;11.43;6.72;;;2.70;77.50;;;1.42;62.42;93334.84;5038328;28;20646;-81
2020/12/30 03:30:56;;;;;;;9.63;6.72;;;2.60;77.50;;;1.43;62.18;93336.44;5062091;28;20208;-81
2020/12/30 03:33:23;;;;;;;12.35;7.50;;;2.60;77.60;;;1.41;62.44;93332.44;5052329;28;20218;-81
2020/12/30 03:35:49;;;;;;;10.65;7.30;;;2.60;77.70;;;1.42;62.63;93334.84;5054892;28;20376;-81
2020/12/30 03:38:16;;;;;;;12.98;7.82;;;2.50;77.80;;;1.45;62.38;93336.28;5068133;28;20199;-81
2020/12/30 03:40:43;;;;;;;12.20;7.63;;;2.60;78.00;;;1.44;62.54;93330.31;5034832;28;20704;-81
2020/12/30 03:43:10;;;;;;;12.70;8.02;;;2.60;77.90;;;1.46;62.48;93330.13;5065488;28;20534;-81
2020/12/30 03:45:37;;;;;;;12.25;7.95;;;2.50;77.90;;;1.48;62.15;93327.38;5028425;28;20223;-82
2020/12/30 03:48:04;;;;;;;10.20;7.00;;;2.60;78.00;;;1.47;62.54;93325.78;5051240;28;20623;-82
2020/12/30 03:50:31;;;;;;;10.32;7.10;;;2.50;77.90;;;1.46;62.18;93331.94;5052593;28;20215;-82
2020/12/30 03:52:58;;;;;;;9.43;6.85;;;2.50;78.00;;;1.40;62.30;93311.00;5035946;28;20236;-80
2020/12/30 03:55:25;;;;;;;11.45;7.28;;;2.50;78.00;;;1.46;62.19;93313.84;5018405;28;20305;-81
2020/12/30 03:57:51;;;;;;;9.73;7.47;;;2.50;77.90;;;1.42;62.32;93313.38;5035278;28;20207;-81
2020/12/30 04:00:18;;;;;;;10.52;7.10;;;2.50;78.80;;;1.45;62.22;93318.19;5051943;28;20785;-80
2020/12/30 04:02:46;;;;;;;8.07;6.28;;;2.50;77.90;;;1.42;62.21;93329.69;5042469;28;20688;-81
2020/12/30 04:05:13;;;;;;;10.73;6.97;;;2.50;77.80;;;1.40;62.33;93331.66;5052994;28;20224;-81
2020/12/30 04:07:40;;;;;;;12.40;7.22;;;2.40;77.80;;;1.38;61.95;93330.19;5060196;28;20199;-82
2020/12/30 04:10:07;;;;;;;9.15;6.65;;;2.50;77.80;;;1.36;62.16;93332.97;5041136;28;20253;-81
2020/12/30 04:12:34;;;;;;;9.50;7.30;;;2.40;77.80;;;1.31;62.42;93321.53;5075032;28;20215;-81
2020/12/30 04:15:01;;;;;;;12.48;8.45;;;2.40;77.80;;;1.30;62.46;93332.88;5058378;28;20223;-81
2020/12/30 04:17:27;;;;;;;16.65;9.60;;;2.40;77.80;;;1.29;63.32;93329.47;5060339;28;20683;-81
2020/12/30 04:19:54;;;;;;;15.18;10.35;;;2.40;78.00;;;1.29;63.70;93342.38;5041116;28;20207;-81
2020/12/30 04:22:21;;;;;;;13.52;9.43;;;2.40;78.20;;;1.34;63.16;93336.69;5067300;28;20249;-82
2020/12/30 04:24:47;;;;;;;12.57;8.70;;;2.40;78.30;;;1.38;62.80;93343.09;5020980;28;20235;-81
2020/12/30 04:27:14;;;;;;;13.60;7.78;;;2.40;78.20;;;1.34;62.76;93334.91;5035972;28;20524;-80
2020/12/30 04:29:41;;;;;;;10.25;7.47;;;2.50;78.20;;;1.34;62.37;93340.06;5041475;28;20708;-81
2020/12/30 04:32:08;;;;;;;11.23;7.13;;;2.40;78.00;;;1.30;62.76;93346.56;5065714;28;20218;-81
2020/12/30 04:34:35;;;;;;;13.40;8.77;;;2.40;78.00;;;1.31;62.74;93342.19;5035301;28;20252;-81
2020/12/30 04:37:02;;;;;;;13.13;7.93;;;2.40;78.10;;;1.32;62.86;93344.63;5054265;28;20203;-81
2020/12/30 04:39:28;;;;;;;12.05;8.00;;;2.40;78.10;;;1.33;62.87;93342.84;5066574;28;20220;-80
2020/12/30 04:41:59;;;;;;;10.52;6.65;;;2.40;78.10;;;1.34;62.78;93349.63;5054022;28;20261;-80
2020/12/30 04:44:31;;;;;;;11.13;7.40;;;2.40;78.30;;;1.35;63.04;93357.19;5064784;28;20693;-81
2020/12/30 04:46:59;;;;;;;10.45;7.10;;;2.40;78.40;;;1.40;63.45;93362.66;5061928;28;20225;-81
2020/12/30 04:49:27;;;;;;;10.70;6.60;;;2.40;78.60;;;1.43;64.05;93354.53;5046037;28;20310;-80
2020/12/30 04:51:55;;;;;;;10.40;6.47;;;2.40;78.80;;;1.57;64.44;93355.53;5046996;28;20314;-81
2020/12/30 04:54:22;;;;;;;11.35;7.07;;;2.50;79.00;;;1.70;64.21;93361.91;5046207;28;20303;-81
2020/12/30 04:57:03;;;;;;;8.88;5.95;;;2.50;79.20;;;1.82;63.91;93368.25;5052070;28;20202;-81
2020/12/30 04:59:52;;;;;;;8.95;6.40;;;2.60;79.30;;;1.93;64.36;93361.84;5065337;28;20219;-81
2020/12/30 05:02:44;;;;;;;10.35;6.15;;;2.80;80.20;;;2.05;63.92;93350.09;5052053;28;20200;-81
2020/12/30 05:05:11;;;;;;;9.80;5.82;;;2.80;79.40;;;2.17;63.68;93354.81;5061531;28;20211;-81
2020/12/30 05:07:38;;;;;;;7.53;5.15;;;2.90;79.40;;;2.25;63.76;93354.72;5053901;28;20294;-81
2020/12/30 05:10:05;;;;;;;6.00;4.55;;;3.10;79.40;;;2.33;63.38;93364.97;5049992;28;20277;-81
2020/12/30 05:12:35;;;;;;;6.93;5.05;;;3.10;79.20;;;2.37;63.09;93355.88;5036825;28;20239;-81
2020/12/30 05:15:02;;;;;;;8.13;4.88;;;3.10;79.10;;;2.44;63.11;93358.56;5057355;28;20713;-82
2020/12/30 05:17:29;;;;;;;9.23;4.30;;;3.20;79.00;;;2.48;63.10;93362.38;5071501;28;20302;-81
2020/12/30 05:19:56;;;;;;;7.65;4.63;;;3.30;79.00;;;2.50;62.79;93363.00;5058169;28;20703;-81
2020/12/30 05:22:23;;;;;;;8.18;4.75;;;3.40;78.90;;;2.54;63.02;93363.44;5049182;28;20241;-82
2020/12/30 05:24:50;;;;;;;8.05;4.63;;;3.40;78.90;;;2.55;63.00;93359.84;5071740;28;20215;-82
2020/12/30 05:27:19;;;;;;;8.63;4.53;;;3.40;78.80;;;2.60;63.03;93372.25;5046139;28;20661;-81
2020/12/30 05:29:52;;;;;;;6.95;4.97;;;3.50;78.80;;;2.63;62.90;93377.88;5033104;28;20781;-81
2020/12/30 05:32:19;;;;;;;9.38;5.80;;;3.50;78.80;;;2.66;63.03;93376.72;5037416;28;20219;-82
2020/12/30 05:34:47;;;;;;;6.93;4.60;;;3.60;78.80;;;2.70;63.10;93377.97;5054022;28;20216;-81
2020/12/30 05:37:14;;;;;;;6.65;4.50;;;3.60;78.80;;;2.75;62.69;93385.16;5050680;28;20208;-82
2020/12/30 05:39:42;;;;;;;7.20;4.32;;;3.60;78.70;;;2.77;63.01;93396.97;5049498;28;20229;-82
2020/12/30 05:42:17;;;;;;;6.28;4.70;;;3.60;78.50;;;2.79;62.57;93394.97;5050645;28;20731;-81
2020/12/30 05:44:50;;;;;;;6.95;4.70;;;3.70;78.60;;;2.80;62.36;93400.97;5034484;28;21065;-81
2020/12/30 05:47:23;;;;;;;8.50;4.78;;;3.70;78.50;;;2.81;62.30;93408.56;5070649;28;20183;-81
2020/12/30 05:49:57;;;;;;;7.25;4.65;;;3.70;78.40;;;2.80;61.98;93406.94;5061373;28;20224;-81
2020/12/30 05:52:26;;;;;;;7.63;4.60;;;3.70;78.20;;;2.75;62.17;93408.47;5080088;28;20253;-81
2020/12/30 05:54:59;;;;;;;9.68;5.82;;;3.70;78.00;;;2.68;61.73;93413.56;5066085;28;20216;-80
2020/12/30 05:57:36;;;;;;;9.98;5.95;;;3.70;77.80;;;2.60;61.67;93408.50;5050270;28;20204;-81
2020/12/30 06:00:13;;;;;;;11.45;5.95;;;3.70;77.80;;;2.49;61.97;93407.97;5034405;28;20238;-79
2020/12/30 06:02:47;;;;;;;9.30;6.57;;;3.60;77.60;;;2.35;61.82;93406.19;5040746;28;20187;-81
2020/12/30 06:05:25;;;;;;;10.23;6.13;;;3.50;77.40;;;2.32;61.98;93412.53;5062108;28;20226;-82
2020/12/30 06:07:53;;;;;;;7.65;5.47;;;3.50;77.40;;;2.23;61.97;93411.00;5034222;28;20227;-81
2020/12/30 06:10:23;;;;;;;6.60;4.38;;;3.40;78.20;;;2.18;61.95;93414.09;5036763;28;20630;-81
2020/12/30 06:12:59;;;;;;;5.78;4.35;;;3.40;77.50;;;2.16;62.10;93415.28;5052861;28;20307;-80
2020/12/30 06:15:29;;;;;;;6.13;3.90;;;3.30;77.70;;;2.14;62.23;93417.25;5039283;28;20239;-81
2020/12/30 06:17:57;;;;;;;4.82;3.50;;;3.20;77.70;;;2.14;62.21;93420.63;5037340;28;20207;-80
2020/12/30 06:20:31;;;;;;;4.68;3.38;;;3.30;77.80;;;2.15;62.26;93418.84;5057228;28;20223;-81
2020/12/30 06:23:06;;;;;;;5.82;3.88;;;3.20;77.80;;;2.16;62.22;93428.19;5052692;28;20200;-81
2020/12/30 06:25:37;;;;;;;6.40;3.83;;;3.20;77.90;;;2.17;62.09;93435.81;5053195;28;20216;-81
2020/12/30 06:28:16;;;;;;;9.45;5.55;;;3.20;78.00;;;2.13;61.94;93437.13;5036036;28;20234;-81
2020/12/30 06:30:44;;;;;;;11.30;6.47;;;3.20;77.90;;;2.13;61.76;93447.47;5035678;28;20219;-81
2020/12/30 06:33:12;;;;;;;10.13;6.53;;;3.20;77.70;;;2.10;62.18;93454.78;5068875;28;20251;-81
2020/12/30 06:35:42;;;;;;;10.43;6.50;;;3.20;77.70;;;2.05;61.93;93457.88;5045608;28;20219;-82
2020/12/30 06:38:30;;;;;;;9.88;6.35;;;3.10;77.60;;;1.99;61.54;93459.41;5053351;28;20184;-81
2020/12/30 06:41:04;;;;;;;12.05;6.45;;;3.10;77.70;;;1.96;61.82;93459.75;5044981;28;20223;-81
2020/12/30 06:43:48;;;;;;;19.85;11.15;;;3.10;77.50;;;1.85;61.68;93458.38;5060733;28;20199;-81
2020/12/30 06:46:22;;;;;;;16.52;10.45;;;3.00;77.50;;;1.79;61.77;93460.88;5053706;28;20200;-82
2020/12/30 06:48:57;;;;;;;11.50;7.68;;;3.00;77.30;;;1.69;61.38;93474.03;5065679;28;20295;-81
2020/12/30 06:51:40;;;;;;;11.68;7.93;;;2.90;77.20;;;1.57;61.53;93471.03;5055080;28;20244;-82
2020/12/30 06:54:07;;;;;;;11.30;6.88;;;2.80;77.10;;;1.50;61.66;93478.69;5069264;28;20243;-80
2020/12/30 06:56:42;;;;;;;12.15;7.13;;;2.80;77.00;;;1.41;61.43;93480.50;5035830;28;20204;-81
2020/12/30 06:59:20;;;;;;;11.95;7.20;;;2.70;77.00;;;1.31;61.26;93474.75;5052102;28;20674;-80
2020/12/30 07:02:04;;;;;;;13.48;7.78;;;2.60;76.90;;;1.25;61.72;93478.00;5052111;28;20658;-82
2020/12/30 07:04:37;;;;;;;10.40;6.88;;;2.60;77.10;;;1.22;61.25;93475.75;5054961;28;20689;-81
2020/12/30 07:07:20;;;;;;;10.75;6.22;;;2.50;76.90;;;1.18;61.56;93480.47;5055990;28;20281;-81
2020/12/30 07:09:47;;;;;;;15.05;8.95;;;2.40;77.20;;;1.15;61.74;93475.66;5068387;28;20224;-81
2020/12/30 07:12:14;;;;;;;11.00;7.88;;;2.40;77.10;;;1.15;61.66;93483.41;5051710;28;20223;-82
2020/12/30 07:14:40;;;;;;;10.73;7.10;;;2.30;77.20;;;1.13;61.87;93485.34;5051528;28;20224;-81
2020/12/30 07:17:08;;;;;;;8.80;6.38;;;2.30;77.20;;;1.13;61.67;93475.00;5070660;28;20191;-81
2020/12/30 07:19:37;;;;;;;8.70;5.93;;;2.30;77.30;;;1.14;61.75;93481.00;5055039;28;20224;-81
2020/12/30 07:22:12;;;;;;;9.90;6.85;;;2.20;77.30;;;1.13;61.78;93477.59;5064239;28;20685;-80
2020/12/30 07:24:53;;;;;;;7.18;5.40;;;2.20;77.50;;;1.14;61.81;93483.56;5051573;28;20228;-81
2020/12/30 07:27:22;;;;;;;6.47;4.20;;;2.20;78.20;;;1.13;62.23;93477.59;5052153;28;20176;-81
2020/12/30 07:29:49;;;;;;;5.82;3.97;;;2.30;77.70;;;1.23;62.03;93488.53;5066821;28;20738;-79
2020/12/30 07:32:18;;;;;;;6.18;3.90;;;2.30;77.90;;;1.32;62.13;93485.88;5043493;28;20215;-81
2020/12/30 07:34:51;;;;;;;15.63;9.00;;;2.30;78.10;;;1.41;62.29;93490.03;5071357;28;20238;-80
2020/12/30 07:37:19;;;;;;;18.23;11.27;;;2.30;78.20;;;1.48;62.14;93495.31;5033600;28;20545;-81
2020/12/30 07:39:50;;;;;;;16.90;10.65;;;2.40;78.10;;;1.46;62.36;93489.53;5050280;28;20227;-80
2020/12/30 07:42:23;;;;;;;15.48;8.93;;;2.40;78.10;;;1.56;61.92;93495.25;5058497;28;20381;-81
2020/12/30 07:45:00;;;;;;;12.88;8.48;;;2.40;78.00;;;1.60;61.77;93499.91;5061890;28;20326;-80
2020/12/30 07:47:28;;;;;;;11.85;7.70;;;2.50;77.90;;;1.62;61.80;93507.50;5057114;28;20199;-80
2020/12/30 07:50:05;;;;;;;12.15;7.38;;;2.50;77.80;;;1.62;61.71;93502.31;5043674;28;20207;-79
2020/12/30 07:52:32;;;;;;;12.73;7.90;;;2.50;77.90;;;1.62;61.77;93491.19;5067267;28;20218;-80
2020/12/30 07:54:59;;;;;;;12.43;7.57;;;2.60;77.80;;;1.67;61.83;93500.06;5066141;28;20302;-80
2020/12/30 07:57:26;;;;;;;10.77;7.13;;;2.60;77.80;;;1.70;61.94;93501.47;5052453;28;20196;-81
2020/12/30 07:59:53;;;;;;;12.57;7.10;;;2.60;77.90;;;1.72;61.61;93502.09;5036049;28;20302;-81
2020/12/30 08:02:20;;;;;;;10.85;7.30;;;2.60;77.80;;;1.76;61.96;93500.78;5069267;28;20192;-80
2020/12/30 08:04:59;;;;;;;12.18;7.47;;;2.60;77.90;;;1.77;61.95;93510.16;5066680;28;20216;-82
2020/12/30 08:07:31;;;;;;;11.70;6.45;;;2.70;78.00;;;1.82;61.63;93502.69;5053316;28;20299;-82
2020/12/30 08:09:58;;;;;;;11.75;6.80;;;2.70;78.00;;;1.87;61.79;93509.94;5052999;28;20207;-82
2020/12/30 08:12:25;;;;;;;13.75;7.68;;;2.70;78.00;;;1.92;62.07;93511.00;5067330;28;20705;-82
2020/12/30 08:14:53;;;;;;;10.40;7.28;;;2.70;78.00;;;1.99;62.07;93512.88;5027206;28;20204;-82
2020/12/30 08:17:21;;;;;;;11.13;7.32;;;2.80;78.10;;;2.05;62.02;93519.94;5036823;28;20202;-82
2020/12/30 08:19:50;;;;;;;9.93;7.05;;;2.90;78.30;;;2.11;61.97;93511.50;5052010;28;20310;-80
2020/12/30 08:22:23;;;;;;;13.00;7.05;;;2.90;78.30;;;2.21;61.98;93514.66;5049809;28;20203;-82
2020/12/30 08:24:57;;;;;;;18.05;7.63;;;2.90;78.50;;;2.28;61.89;93513.94;5051026;28;20234;-81
2020/12/30 08:27:28;;;;;;;15.45;7.30;;;3.00;78.70;;;2.37;61.94;93515.50;5051614;28;20704;-80
2020/12/30 08:30:15;;;;;;;10.68;6.35;;;3.10;78.60;;;2.46;62.18;93518.81;5055243;28;20685;-82
2020/12/30 08:32:57;;;;;;;10.82;7.65;;;3.20;78.60;;;2.56;61.97;93519.34;5036505;28;20390;-80
2020/12/30 08:35:30;;;;;;;10.00;6.95;;;3.20;78.70;;;2.66;61.99;93513.91;5049236;28;20281;-79
2020/12/30 08:38:12;;;;;;;15.65;8.23;;;3.30;78.70;;;2.75;61.87;93512.84;5036861;28;20193;-80
2020/12/30 08:40:41;;;;;;;12.18;6.78;;;3.40;78.90;;;2.82;62.42;93516.34;5058041;28;20224;-82
2020/12/30 08:43:11;;;;;;;7.88;5.32;;;3.50;78.80;;;2.90;62.43;93518.03;5045695;28;20196;-82
2020/12/30 08:45:50;;;;;;;5.55;4.07;;;3.60;78.90;;;2.96;62.62;93538.00;5057806;28;20219;-82
2020/12/30 08:48:19;;;;;;;6.78;3.95;;;3.70;78.90;;;3.03;62.36;93538.91;5087402;28;20725;-82
2020/12/30 08:50:49;;;;;;;6.45;3.63;;;3.70;78.80;;;3.17;61.96;93539.09;5054135;28;20226;-82
2020/12/30 08:53:33;;;;;;;7.65;4.00;;;3.80;78.70;;;3.31;62.02;93551.22;5063661;28;20233;-82
2020/12/30 08:56:01;;;;;;;6.57;3.95;;;3.90;78.60;;;3.43;61.64;93548.97;5058285;28;20211;-80
2020/12/30 08:58:29;;;;;;;7.00;3.88;;;4.00;78.60;;;3.53;61.37;93548.69;5038186;28;20200;-81
2020/12/30 09:00:55;;;;;;;4.95;3.45;;;4.10;78.50;;;3.61;60.92;93551.16;5038054;28;20208;-81
2020/12/30 09:03:28;;;;;;;9.57;4.70;;;4.30;78.50;;;3.67;60.69;93552.22;5054095;28;20206;-81
2020/12/30 09:05:57;;;;;;;7.18;4.20;;;4.30;78.10;;;3.76;60.38;93545.94;5053173;28;20262;-81
2020/12/30 09:08:27;;;;;;;6.35;4.20;;;4.40;78.00;;;3.89;59.93;93547.06;5053421;28;20196;-81
2020/12/30 09:10:54;;;;;;;4.85;3.63;;;4.50;77.80;;;3.97;59.96;93552.16;5023213;28;20589;-82
2020/12/30 09:13:32;;;;;;;6.20;3.85;;;4.60;77.80;;;4.10;60.31;93551.44;5069600;28;20705;-81
2020/12/30 09:16:04;;;;;;;5.25;3.50;;;4.70;77.80;;;4.19;60.37;93552.13;5063602;28;20701;-80
2020/12/30 09:18:32;;;;;;;5.68;4.00;;;4.80;77.60;;;4.27;59.71;93557.19;5067076;28;20269;-82
2020/12/30 09:20:59;;;;;;;6.57;4.00;;;4.90;77.50;;;4.32;59.54;93540.09;5050868;28;20219;-79
2020/12/30 09:23:26;;;;;;;4.90;3.72;;;5.00;77.50;;;4.41;59.24;93552.94;5038383;28;20618;-80
2020/12/30 09:25:54;;;;;;;5.28;3.70;;;5.00;77.40;;;4.47;59.10;93547.78;5044975;28;20255;-80
2020/12/30 09:28:26;;;;;;;6.40;4.10;;;5.10;77.30;;;4.50;59.16;93546.59;5053862;28;20206;-80
2020/12/30 09:30:56;;;;;;;7.45;3.95;;;5.20;77.40;;;4.56;58.58;93547.66;5052889;28;20242;-80
2020/12/30 09:33:25;;;;;;;5.57;4.05;;;5.30;76.90;;;4.61;59.05;93556.50;5038037;28;20686;-80
2020/12/30 09:35:53;;;;;;;7.20;4.25;;;5.30;76.90;;;4.64;58.71;93560.50;5056374;28;20624;-81
2020/12/30 09:38:22;;;;;;;5.32;3.97;;;5.30;76.70;;;4.67;58.49;93565.31;5051384;28;20203;-80
2020/12/30 09:40:52;;;;;;;5.43;3.58;;;5.40;76.60;;;4.71;58.58;93557.94;5037517;28;20738;-79
2020/12/30 09:43:26;;;;;;;5.85;3.63;;;5.40;76.60;;;4.76;58.89;93552.97;5047826;28;20689;-80
2020/12/30 09:46:00;;;;;;;5.55;3.83;;;5.60;76.60;;;4.84;58.81;93558.03;5069284;28;20218;-80
2020/12/30 09:48:28;;;;;;;6.35;3.78;;;5.60;76.60;;;4.88;58.92;93554.06;5053619;28;20180;-80
2020/12/30 09:50:55;;;;;;;6.10;4.22;;;5.60;76.60;;;4.90;58.79;93554.66;5056359;28;20212;-80
2020/12/30 09:53:23;;;;;;;7.10;3.97;;;5.60;76.30;;;4.91;58.30;93553.69;5040011;28;20227;-80
2020/12/30 09:55:51;;;;;;;6.68;3.50;;;5.70;76.30;;;4.95;58.51;93551.50;5050583;28;20219;-81
2020/12/30 09:58:18;;;;;;;3.70;3.03;;;5.70;76.30;;;4.94;58.12;93550.72;5056387;28;20241;-79
2020/12/30 10:00:45;;;;;;;4.28;3.10;;;5.70;76.20;;;4.99;58.39;93552.72;5035034;28;20657;-79
2020/12/30 10:03:12;;;;;;;4.63;2.63;;;5.70;76.10;;;4.96;57.94;93543.50;5022063;28;20615;-81
2020/12/30 10:05:38;;;;;;;6.30;3.17;;;5.70;76.10;;;5.03;58.21;93546.16;5056879;28;20247;-80
2020/12/30 10:08:05;;;;;;;6.10;3.10;;;5.80;76.10;;;5.03;57.85;93535.78;5038343;28;20204;-82
2020/12/30 10:10:32;;;;;;;6.28;3.00;;;5.80;76.00;;;5.10;58.12;93535.78;5056471;28;20226;-81
2020/12/30 10:12:59;;;;;;;4.90;2.67;;;5.80;76.00;;;5.15;58.30;93540.41;5068869;28;20297;-82
2020/12/30 10:15:27;;;;;;;4.20;2.50;;;5.90;76.10;;;5.16;58.24;93536.84;5038098;28;20230;-82
2020/12/30 10:17:54;;;;;;;3.10;2.40;;;5.90;76.10;;;5.19;58.04;93534.66;5051153;28;20196;-82
2020/12/30 10:20:21;;;;;;;4.35;2.60;;;5.90;76.00;;;5.27;58.09;93544.91;5053543;28;20222;-81
2020/12/30 10:22:48;;;;;;;2.92;2.10;;;5.90;76.00;;;5.33;58.50;93537.31;5039365;28;20203;-81
2020/12/30 10:25:15;;;;;;;4.07;2.28;;;5.90;76.00;;;5.35;58.15;93536.13;5072315;28;20211;-81
2020/12/30 10:27:45;;;;;;;3.80;2.00;;;6.00;76.00;;;5.38;58.36;93535.75;5068345;28;20261;-80
2020/12/30 10:30:12;;;;;;;3.63;2.22;;;6.00;76.00;;;5.42;57.51;93536.13;5052332;28;20486;-82
2020/12/30 10:32:40;;;;;;;3.72;2.40;;;6.10;75.90;;;5.49;57.81;93536.97;5054128;28;20245;-82
2020/12/30 10:35:07;;;;;;;3.40;2.30;;;6.10;75.80;;;5.55;57.87;93540.59;5055405;28;20222;-82
2020/12/30 10:37:35;;;;;;;4.05;2.35;;;6.20;75.90;;;5.59;57.72;93536.59;5021284;28;20663;-83